sensor_id;sensor_type;location;lat;lon;timestamp;P1;durP1;ratioP1;P2;durP2;ratioP2
62588;SDS011;58504;48.770;9.148;2023-06-26T00:01:29;5.38;;;3.92;;
62588;SDS011;58504;48.770;9.148;2023-06-26T00:03:56;5.80;;;3.80;;
62588;SDS011;58504;48.770;9.148;2023-06-26T00:06:24;5.53;;;3.88;;
62588;SDS011;58504;48.770;9.148;2023-06-26T00:08:51;4.55;;;4.15;;
62588;SDS011;58504;48.770;9.148;2023-06-26T00:11:18;8.93;;;4.38;;
62588;SDS011;58504;48.770;9.148;2023-06-26T00:13:45;4.90;;;4.05;;
62588;SDS011;58504;48.770;9.148;2023-06-26T00:16:13;4.63;;;4.13;;
62588;SDS011;58504;48.770;9.148;2023-06-26T00:18:40;5.75;;;4.32;;
62588;SDS011;58504;48.770;9.148;2023-06-26T00:21:07;5.53;;;4.43;;
62588;SDS011;58504;48.770;9.148;2023-06-26T00:23:34;4.97;;;3.30;;
62588;SDS011;58504;48.770;9.148;2023-06-26T00:26:01;5.55;;;4.03;;
62588;SDS011;58504;48.770;9.148;2023-06-26T00:28:29;4.63;;;4.18;;
62588;SDS011;58504;48.770;9.148;2023-06-26T00:30:55;5.78;;;4.30;;
62588;SDS011;58504;48.770;9.148;2023-06-26T00:33:23;4.10;;;3.70;;
62588;SDS011;58504;48.770;9.148;2023-06-26T00:35:50;4.00;;;3.53;;
62588;SDS011;58504;48.770;9.148;2023-06-26T00:38:17;3.95;;;3.53;;
62588;SDS011;58504;48.770;9.148;2023-06-26T00:40:44;4.35;;;3.95;;
62588;SDS011;58504;48.770;9.148;2023-06-26T00:43:10;6.13;;;3.70;;
62588;SDS011;58504;48.770;9.148;2023-06-26T00:45:37;4.57;;;3.72;;
62588;SDS011;58504;48.770;9.148;2023-06-26T00:48:04;4.80;;;4.35;;
62588;SDS011;58504;48.770;9.148;2023-06-26T00:50:33;4.10;;;3.70;;
62588;SDS011;58504;48.770;9.148;2023-06-26T00:53:00;4.85;;;4.10;;
62588;SDS011;58504;48.770;9.148;2023-06-26T00:55:27;5.50;;;4.22;;
62588;SDS011;58504;48.770;9.148;2023-06-26T00:57:55;5.10;;;4.20;;
62588;SDS011;58504;48.770;9.148;2023-06-26T01:00:22;4.82;;;4.18;;
62588;SDS011;58504;48.770;9.148;2023-06-26T01:02:48;4.40;;;3.72;;
62588;SDS011;58504;48.770;9.148;2023-06-26T01:05:15;5.88;;;4.63;;
62588;SDS011;58504;48.770;9.148;2023-06-26T01:07:47;4.57;;;3.47;;
62588;SDS011;58504;48.770;9.148;2023-06-26T01:10:14;5.35;;;4.65;;
62588;SDS011;58504;48.770;9.148;2023-06-26T01:12:41;5.85;;;5.15;;
62588;SDS011;58504;48.770;9.148;2023-06-26T01:15:09;5.35;;;4.38;;
62588;SDS011;58504;48.770;9.148;2023-06-26T01:17:37;5.15;;;4.60;;
62588;SDS011;58504;48.770;9.148;2023-06-26T01:20:05;4.38;;;3.90;;
62588;SDS011;58504;48.770;9.148;2023-06-26T01:22:34;6.03;;;4.80;;
62588;SDS011;58504;48.770;9.148;2023-06-26T01:25:15;4.63;;;4.22;;
62588;SDS011;58504;48.770;9.148;2023-06-26T01:27:48;4.60;;;4.00;;
62588;SDS011;58504;48.770;9.148;2023-06-26T01:30:16;5.10;;;4.65;;
62588;SDS011;58504;48.770;9.148;2023-06-26T01:32:44;4.25;;;3.85;;
62588;SDS011;58504;48.770;9.148;2023-06-26T01:35:12;7.13;;;4.22;;
62588;SDS011;58504;48.770;9.148;2023-06-26T01:37:40;5.03;;;4.53;;
62588;SDS011;58504;48.770;9.148;2023-06-26T01:40:08;4.63;;;4.22;;
62588;SDS011;58504;48.770;9.148;2023-06-26T01:42:35;4.13;;;3.72;;
62588;SDS011;58504;48.770;9.148;2023-06-26T01:45:05;4.30;;;4.00;;
62588;SDS011;58504;48.770;9.148;2023-06-26T01:47:36;4.55;;;4.05;;
62588;SDS011;58504;48.770;9.148;2023-06-26T01:50:08;5.18;;;4.50;;
62588;SDS011;58504;48.770;9.148;2023-06-26T01:52:38;4.82;;;4.30;;
62588;SDS011;58504;48.770;9.148;2023-06-26T01:55:10;5.07;;;4.57;;
62588;SDS011;58504;48.770;9.148;2023-06-26T01:57:46;4.45;;;3.75;;
62588;SDS011;58504;48.770;9.148;2023-06-26T02:00:15;4.45;;;4.05;;
62588;SDS011;58504;48.770;9.148;2023-06-26T02:02:44;4.90;;;4.45;;
62588;SDS011;58504;48.770;9.148;2023-06-26T02:05:11;5.15;;;4.65;;
62588;SDS011;58504;48.770;9.148;2023-06-26T02:07:38;4.70;;;4.25;;
62588;SDS011;58504;48.770;9.148;2023-06-26T02:10:05;6.10;;;4.95;;
62588;SDS011;58504;48.770;9.148;2023-06-26T02:12:33;4.78;;;4.18;;
62588;SDS011;58504;48.770;9.148;2023-06-26T02:15:01;4.60;;;4.20;;
62588;SDS011;58504;48.770;9.148;2023-06-26T02:17:29;4.85;;;3.80;;
62588;SDS011;58504;48.770;9.148;2023-06-26T02:19:56;5.78;;;4.65;;
62588;SDS011;58504;48.770;9.148;2023-06-26T02:22:22;5.15;;;4.72;;
62588;SDS011;58504;48.770;9.148;2023-06-26T02:24:49;5.00;;;4.53;;
62588;SDS011;58504;48.770;9.148;2023-06-26T02:27:16;5.07;;;4.57;;
62588;SDS011;58504;48.770;9.148;2023-06-26T02:29:42;5.45;;;4.95;;
62588;SDS011;58504;48.770;9.148;2023-06-26T02:32:09;4.65;;;4.25;;
62588;SDS011;58504;48.770;9.148;2023-06-26T02:34:37;6.80;;;5.13;;
62588;SDS011;58504;48.770;9.148;2023-06-26T02:37:04;5.47;;;4.68;;
62588;SDS011;58504;48.770;9.148;2023-06-26T02:39:32;4.55;;;4.15;;
62588;SDS011;58504;48.770;9.148;2023-06-26T02:41:59;5.15;;;4.72;;
62588;SDS011;58504;48.770;9.148;2023-06-26T02:44:25;5.53;;;5.03;;
62588;SDS011;58504;48.770;9.148;2023-06-26T02:46:52;5.07;;;4.57;;
62588;SDS011;58504;48.770;9.148;2023-06-26T02:49:19;4.30;;;4.00;;
62588;SDS011;58504;48.770;9.148;2023-06-26T02:51:47;4.65;;;4.25;;
62588;SDS011;58504;48.770;9.148;2023-06-26T02:54:14;4.93;;;4.53;;
62588;SDS011;58504;48.770;9.148;2023-06-26T02:56:40;5.43;;;4.93;;
62588;SDS011;58504;48.770;9.148;2023-06-26T02:59:07;4.70;;;4.30;;
62588;SDS011;58504;48.770;9.148;2023-06-26T03:01:34;4.47;;;4.07;;
62588;SDS011;58504;48.770;9.148;2023-06-26T03:04:01;4.95;;;4.55;;
62588;SDS011;58504;48.770;9.148;2023-06-26T03:06:28;7.97;;;4.40;;
62588;SDS011;58504;48.770;9.148;2023-06-26T03:08:56;5.53;;;4.95;;
62588;SDS011;58504;48.770;9.148;2023-06-26T03:11:22;5.15;;;4.72;;
62588;SDS011;58504;48.770;9.148;2023-06-26T03:13:49;4.50;;;4.10;;
62588;SDS011;58504;48.770;9.148;2023-06-26T03:16:16;5.40;;;4.90;;
62588;SDS011;58504;48.770;9.148;2023-06-26T03:18:43;4.95;;;4.40;;
62588;SDS011;58504;48.770;9.148;2023-06-26T03:21:09;5.20;;;4.72;;
62588;SDS011;58504;48.770;9.148;2023-06-26T03:23:36;5.35;;;4.85;;
62588;SDS011;58504;48.770;9.148;2023-06-26T03:26:04;4.32;;;4.03;;
62588;SDS011;58504;48.770;9.148;2023-06-26T03:28:31;4.32;;;4.03;;
62588;SDS011;58504;48.770;9.148;2023-06-26T03:30:58;5.15;;;4.72;;
62588;SDS011;58504;48.770;9.148;2023-06-26T03:33:24;4.45;;;4.05;;
62588;SDS011;58504;48.770;9.148;2023-06-26T03:35:51;4.25;;;3.95;;
62588;SDS011;58504;48.770;9.148;2023-06-26T03:38:18;5.75;;;4.50;;
62588;SDS011;58504;48.770;9.148;2023-06-26T03:40:45;4.90;;;4.50;;
62588;SDS011;58504;48.770;9.148;2023-06-26T03:43:13;5.82;;;4.43;;
62588;SDS011;58504;48.770;9.148;2023-06-26T03:45:40;6.47;;;4.60;;
62588;SDS011;58504;48.770;9.148;2023-06-26T03:48:07;4.53;;;4.13;;
62588;SDS011;58504;48.770;9.148;2023-06-26T03:50:34;4.30;;;4.00;;
62588;SDS011;58504;48.770;9.148;2023-06-26T03:53:01;4.78;;;4.25;;
62588;SDS011;58504;48.770;9.148;2023-06-26T03:55:28;4.60;;;4.28;;
62588;SDS011;58504;48.770;9.148;2023-06-26T03:57:55;4.95;;;4.55;;
62588;SDS011;58504;48.770;9.148;2023-06-26T04:00:23;4.20;;;3.90;;
62588;SDS011;58504;48.770;9.148;2023-06-26T04:02:49;4.45;;;4.07;;
62588;SDS011;58504;48.770;9.148;2023-06-26T04:05:17;5.35;;;4.85;;
62588;SDS011;58504;48.770;9.148;2023-06-26T04:07:44;4.60;;;4.25;;
62588;SDS011;58504;48.770;9.148;2023-06-26T04:10:11;4.53;;;4.22;;
62588;SDS011;58504;48.770;9.148;2023-06-26T04:12:37;4.78;;;4.38;;
62588;SDS011;58504;48.770;9.148;2023-06-26T04:15:04;5.28;;;4.78;;
62588;SDS011;58504;48.770;9.148;2023-06-26T04:17:33;4.55;;;4.15;;
62588;SDS011;58504;48.770;9.148;2023-06-26T04:20:00;5.15;;;4.65;;
62588;SDS011;58504;48.770;9.148;2023-06-26T04:22:30;5.07;;;4.63;;
62588;SDS011;58504;48.770;9.148;2023-06-26T04:24:56;7.05;;;5.32;;
62588;SDS011;58504;48.770;9.148;2023-06-26T04:27:23;6.95;;;4.75;;
62588;SDS011;58504;48.770;9.148;2023-06-26T04:29:50;4.43;;;4.10;;
62588;SDS011;58504;48.770;9.148;2023-06-26T04:32:16;5.03;;;4.63;;
62588;SDS011;58504;48.770;9.148;2023-06-26T04:34:45;4.43;;;4.05;;
62588;SDS011;58504;48.770;9.148;2023-06-26T04:37:13;5.35;;;4.85;;
62588;SDS011;58504;48.770;9.148;2023-06-26T04:39:41;5.60;;;4.85;;
62588;SDS011;58504;48.770;9.148;2023-06-26T04:42:08;4.35;;;4.05;;
62588;SDS011;58504;48.770;9.148;2023-06-26T04:44:36;4.75;;;3.72;;
62588;SDS011;58504;48.770;9.148;2023-06-26T04:47:03;4.95;;;4.55;;
62588;SDS011;58504;48.770;9.148;2023-06-26T04:49:30;7.10;;;4.38;;
62588;SDS011;58504;48.770;9.148;2023-06-26T04:51:58;4.85;;;4.45;;
62588;SDS011;58504;48.770;9.148;2023-06-26T04:54:25;4.50;;;4.03;;
62588;SDS011;58504;48.770;9.148;2023-06-26T04:56:53;5.10;;;4.70;;
62588;SDS011;58504;48.770;9.148;2023-06-26T04:59:20;5.65;;;4.78;;
62588;SDS011;58504;48.770;9.148;2023-06-26T05:01:47;5.40;;;4.43;;
62588;SDS011;58504;48.770;9.148;2023-06-26T05:04:14;4.93;;;4.53;;
62588;SDS011;58504;48.770;9.148;2023-06-26T05:06:41;4.90;;;4.50;;
62588;SDS011;58504;48.770;9.148;2023-06-26T05:09:09;4.88;;;4.47;;
62588;SDS011;58504;48.770;9.148;2023-06-26T05:11:36;4.38;;;3.95;;
62588;SDS011;58504;48.770;9.148;2023-06-26T05:14:03;4.10;;;3.60;;
62588;SDS011;58504;48.770;9.148;2023-06-26T05:16:32;4.65;;;4.28;;
62588;SDS011;58504;48.770;9.148;2023-06-26T05:18:59;4.35;;;3.95;;
62588;SDS011;58504;48.770;9.148;2023-06-26T05:21:27;4.40;;;4.00;;
62588;SDS011;58504;48.770;9.148;2023-06-26T05:23:55;4.55;;;4.13;;
62588;SDS011;58504;48.770;9.148;2023-06-26T05:26:25;4.60;;;4.18;;
62588;SDS011;58504;48.770;9.148;2023-06-26T05:28:52;4.43;;;4.03;;
62588;SDS011;58504;48.770;9.148;2023-06-26T05:31:20;4.90;;;4.50;;
62588;SDS011;58504;48.770;9.148;2023-06-26T05:33:47;5.10;;;4.47;;
62588;SDS011;58504;48.770;9.148;2023-06-26T05:36:16;6.03;;;4.55;;
62588;SDS011;58504;48.770;9.148;2023-06-26T05:38:44;4.80;;;4.40;;
62588;SDS011;58504;48.770;9.148;2023-06-26T05:41:11;4.70;;;4.30;;
62588;SDS011;58504;48.770;9.148;2023-06-26T05:43:39;4.13;;;3.83;;
62588;SDS011;58504;48.770;9.148;2023-06-26T05:46:06;4.65;;;4.30;;
62588;SDS011;58504;48.770;9.148;2023-06-26T05:48:33;4.50;;;4.20;;
62588;SDS011;58504;48.770;9.148;2023-06-26T05:51:00;6.20;;;4.10;;
62588;SDS011;58504;48.770;9.148;2023-06-26T05:53:27;4.80;;;4.40;;
62588;SDS011;58504;48.770;9.148;2023-06-26T05:55:55;4.53;;;4.13;;
62588;SDS011;58504;48.770;9.148;2023-06-26T05:58:23;4.28;;;3.88;;
62588;SDS011;58504;48.770;9.148;2023-06-26T06:00:52;4.82;;;4.43;;
62588;SDS011;58504;48.770;9.148;2023-06-26T06:03:19;5.28;;;4.78;;
62588;SDS011;58504;48.770;9.148;2023-06-26T06:05:46;3.95;;;3.65;;
62588;SDS011;58504;48.770;9.148;2023-06-26T06:08:12;4.18;;;3.83;;
62588;SDS011;58504;48.770;9.148;2023-06-26T06:10:39;8.43;;;3.67;;
62588;SDS011;58504;48.770;9.148;2023-06-26T06:13:06;4.80;;;4.40;;
62588;SDS011;58504;48.770;9.148;2023-06-26T06:15:33;4.00;;;3.70;;
62588;SDS011;58504;48.770;9.148;2023-06-26T06:18:01;4.35;;;3.95;;
62588;SDS011;58504;48.770;9.148;2023-06-26T06:20:28;4.90;;;4.50;;
62588;SDS011;58504;48.770;9.148;2023-06-26T06:22:54;4.60;;;4.15;;
62588;SDS011;58504;48.770;9.148;2023-06-26T06:25:21;4.78;;;3.58;;
62588;SDS011;58504;48.770;9.148;2023-06-26T06:27:48;4.97;;;4.57;;
62588;SDS011;58504;48.770;9.148;2023-06-26T06:30:15;4.18;;;3.88;;
62588;SDS011;58504;48.770;9.148;2023-06-26T06:32:42;4.40;;;4.00;;
62588;SDS011;58504;48.770;9.148;2023-06-26T06:35:10;4.60;;;4.20;;
62588;SDS011;58504;48.770;9.148;2023-06-26T06:37:36;3.63;;;3.28;;
62588;SDS011;58504;48.770;9.148;2023-06-26T06:40:04;3.88;;;3.58;;
62588;SDS011;58504;48.770;9.148;2023-06-26T06:42:32;3.95;;;3.65;;
62588;SDS011;58504;48.770;9.148;2023-06-26T06:44:59;4.22;;;3.88;;
62588;SDS011;58504;48.770;9.148;2023-06-26T06:47:26;4.97;;;4.38;;
62588;SDS011;58504;48.770;9.148;2023-06-26T06:49:52;4.32;;;4.00;;
62588;SDS011;58504;48.770;9.148;2023-06-26T06:52:21;4.60;;;4.20;;
62588;SDS011;58504;48.770;9.148;2023-06-26T06:54:51;3.92;;;3.58;;
62588;SDS011;58504;48.770;9.148;2023-06-26T06:57:19;3.97;;;3.67;;
62588;SDS011;58504;48.770;9.148;2023-06-26T06:59:46;4.60;;;3.80;;
62588;SDS011;58504;48.770;9.148;2023-06-26T07:02:14;4.45;;;4.05;;
62588;SDS011;58504;48.770;9.148;2023-06-26T07:04:42;4.47;;;4.07;;
62588;SDS011;58504;48.770;9.148;2023-06-26T07:07:08;4.47;;;4.07;;
62588;SDS011;58504;48.770;9.148;2023-06-26T07:09:37;4.38;;;3.97;;
62588;SDS011;58504;48.770;9.148;2023-06-26T07:12:04;4.28;;;3.80;;
62588;SDS011;58504;48.770;9.148;2023-06-26T07:14:31;3.80;;;3.50;;
62588;SDS011;58504;48.770;9.148;2023-06-26T07:16:58;3.97;;;3.70;;
62588;SDS011;58504;48.770;9.148;2023-06-26T07:19:25;4.82;;;4.43;;
62588;SDS011;58504;48.770;9.148;2023-06-26T07:21:53;4.28;;;3.88;;
62588;SDS011;58504;48.770;9.148;2023-06-26T07:24:20;4.10;;;3.78;;
62588;SDS011;58504;48.770;9.148;2023-06-26T07:26:48;4.18;;;3.88;;
62588;SDS011;58504;48.770;9.148;2023-06-26T07:29:15;4.20;;;3.90;;
62588;SDS011;58504;48.770;9.148;2023-06-26T07:31:41;4.03;;;3.72;;
62588;SDS011;58504;48.770;9.148;2023-06-26T07:34:10;3.83;;;3.50;;
62588;SDS011;58504;48.770;9.148;2023-06-26T07:36:37;3.75;;;3.45;;
62588;SDS011;58504;48.770;9.148;2023-06-26T07:39:03;4.18;;;3.88;;
62588;SDS011;58504;48.770;9.148;2023-06-26T07:41:30;4.20;;;3.90;;
62588;SDS011;58504;48.770;9.148;2023-06-26T07:43:59;4.07;;;3.78;;
62588;SDS011;58504;48.770;9.148;2023-06-26T07:46:25;3.95;;;3.65;;
62588;SDS011;58504;48.770;9.148;2023-06-26T07:48:52;3.85;;;3.60;;
62588;SDS011;58504;48.770;9.148;2023-06-26T07:51:19;4.68;;;3.67;;
62588;SDS011;58504;48.770;9.148;2023-06-26T07:53:46;4.85;;;3.60;;
62588;SDS011;58504;48.770;9.148;2023-06-26T07:56:13;4.28;;;3.88;;
62588;SDS011;58504;48.770;9.148;2023-06-26T07:58:40;4.35;;;4.03;;
62588;SDS011;58504;48.770;9.148;2023-06-26T08:01:08;3.55;;;3.35;;
62588;SDS011;58504;48.770;9.148;2023-06-26T08:03:34;4.30;;;3.90;;
62588;SDS011;58504;48.770;9.148;2023-06-26T08:06:01;4.03;;;3.65;;
62588;SDS011;58504;48.770;9.148;2023-06-26T08:08:29;4.20;;;3.78;;
62588;SDS011;58504;48.770;9.148;2023-06-26T08:10:56;3.67;;;3.47;;
62588;SDS011;58504;48.770;9.148;2023-06-26T08:13:22;4.13;;;3.83;;
62588;SDS011;58504;48.770;9.148;2023-06-26T08:15:49;4.63;;;3.83;;
62588;SDS011;58504;48.770;9.148;2023-06-26T08:18:17;4.95;;;4.10;;
62588;SDS011;58504;48.770;9.148;2023-06-26T08:20:44;18.50;;;9.50;;
62588;SDS011;58504;48.770;9.148;2023-06-26T08:23:11;21.70;;;8.25;;
62588;SDS011;58504;48.770;9.148;2023-06-26T08:25:38;11.23;;;6.63;;
62588;SDS011;58504;48.770;9.148;2023-06-26T08:28:05;10.98;;;6.70;;
62588;SDS011;58504;48.770;9.148;2023-06-26T08:30:32;7.78;;;5.18;;
62588;SDS011;58504;48.770;9.148;2023-06-26T08:32:58;10.43;;;6.03;;
62588;SDS011;58504;48.770;9.148;2023-06-26T08:35:26;9.93;;;5.88;;
62588;SDS011;58504;48.770;9.148;2023-06-26T08:37:53;15.27;;;5.80;;
62588;SDS011;58504;48.770;9.148;2023-06-26T08:40:20;9.60;;;6.15;;
62588;SDS011;58504;48.770;9.148;2023-06-26T08:42:47;9.95;;;5.68;;
62588;SDS011;58504;48.770;9.148;2023-06-26T08:45:18;10.32;;;5.57;;
62588;SDS011;58504;48.770;9.148;2023-06-26T08:47:45;8.18;;;5.50;;
62588;SDS011;58504;48.770;9.148;2023-06-26T08:50:14;9.43;;;5.68;;
62588;SDS011;58504;48.770;9.148;2023-06-26T08:52:45;7.63;;;4.85;;
62588;SDS011;58504;48.770;9.148;2023-06-26T08:55:19;8.10;;;5.38;;
62588;SDS011;58504;48.770;9.148;2023-06-26T08:57:49;8.02;;;5.95;;
62588;SDS011;58504;48.770;9.148;2023-06-26T09:00:17;8.02;;;5.03;;
62588;SDS011;58504;48.770;9.148;2023-06-26T09:02:44;8.05;;;5.05;;
62588;SDS011;58504;48.770;9.148;2023-06-26T09:05:11;9.60;;;5.07;;
62588;SDS011;58504;48.770;9.148;2023-06-26T09:07:38;8.48;;;5.25;;
62588;SDS011;58504;48.770;9.148;2023-06-26T09:10:07;7.95;;;4.88;;
62588;SDS011;58504;48.770;9.148;2023-06-26T09:12:34;10.43;;;5.70;;
62588;SDS011;58504;48.770;9.148;2023-06-26T09:15:02;10.10;;;5.63;;
62588;SDS011;58504;48.770;9.148;2023-06-26T09:17:32;10.32;;;5.97;;
62588;SDS011;58504;48.770;9.148;2023-06-26T09:20:04;8.05;;;5.65;;
62588;SDS011;58504;48.770;9.148;2023-06-26T09:22:33;6.47;;;4.32;;
62588;SDS011;58504;48.770;9.148;2023-06-26T09:25:02;7.22;;;4.60;;
62588;SDS011;58504;48.770;9.148;2023-06-26T09:27:31;7.43;;;5.30;;
62588;SDS011;58504;48.770;9.148;2023-06-26T09:29:58;8.65;;;5.38;;
62588;SDS011;58504;48.770;9.148;2023-06-26T09:32:25;6.15;;;4.72;;
62588;SDS011;58504;48.770;9.148;2023-06-26T09:34:52;7.45;;;5.15;;
62588;SDS011;58504;48.770;9.148;2023-06-26T09:37:21;10.00;;;5.70;;
62588;SDS011;58504;48.770;9.148;2023-06-26T09:39:50;6.45;;;4.40;;
62588;SDS011;58504;48.770;9.148;2023-06-26T09:42:17;7.28;;;5.25;;
62588;SDS011;58504;48.770;9.148;2023-06-26T09:44:47;6.82;;;4.82;;
62588;SDS011;58504;48.770;9.148;2023-06-26T09:47:15;7.57;;;4.60;;
62588;SDS011;58504;48.770;9.148;2023-06-26T09:49:43;6.93;;;4.97;;
62588;SDS011;58504;48.770;9.148;2023-06-26T09:52:10;7.15;;;4.68;;
62588;SDS011;58504;48.770;9.148;2023-06-26T09:54:41;6.60;;;5.27;;
62588;SDS011;58504;48.770;9.148;2023-06-26T09:57:10;4.72;;;4.32;;
62588;SDS011;58504;48.770;9.148;2023-06-26T09:59:37;5.80;;;5.05;;
62588;SDS011;58504;48.770;9.148;2023-06-26T10:02:05;5.63;;;4.60;;
62588;SDS011;58504;48.770;9.148;2023-06-26T10:04:32;5.93;;;4.72;;
62588;SDS011;58504;48.770;9.148;2023-06-26T10:07:01;6.63;;;4.78;;
62588;SDS011;58504;48.770;9.148;2023-06-26T10:09:30;6.57;;;4.07;;
62588;SDS011;58504;48.770;9.148;2023-06-26T10:12:00;5.82;;;5.15;;
62588;SDS011;58504;48.770;9.148;2023-06-26T10:14:31;5.32;;;4.75;;
62588;SDS011;58504;48.770;9.148;2023-06-26T10:17:01;5.65;;;4.43;;
62588;SDS011;58504;48.770;9.148;2023-06-26T10:19:31;4.65;;;4.25;;
62588;SDS011;58504;48.770;9.148;2023-06-26T10:21:59;6.15;;;4.25;;
62588;SDS011;58504;48.770;9.148;2023-06-26T10:24:29;4.97;;;4.32;;
62588;SDS011;58504;48.770;9.148;2023-06-26T10:27:02;5.50;;;4.55;;
62588;SDS011;58504;48.770;9.148;2023-06-26T10:29:34;5.07;;;4.55;;
62588;SDS011;58504;48.770;9.148;2023-06-26T10:32:02;6.22;;;5.07;;
62588;SDS011;58504;48.770;9.148;2023-06-26T10:34:32;6.13;;;5.53;;
62588;SDS011;58504;48.770;9.148;2023-06-26T10:36:59;5.00;;;4.47;;
62588;SDS011;58504;48.770;9.148;2023-06-26T10:39:27;4.97;;;4.47;;
62588;SDS011;58504;48.770;9.148;2023-06-26T10:42:07;5.13;;;4.57;;
62588;SDS011;58504;48.770;9.148;2023-06-26T10:44:40;4.72;;;4.22;;
62588;SDS011;58504;48.770;9.148;2023-06-26T10:49:36;6.40;;;4.47;;
62588;SDS011;58504;48.770;9.148;2023-06-26T10:52:04;4.50;;;4.10;;
62588;SDS011;58504;48.770;9.148;2023-06-26T10:54:32;5.00;;;4.25;;
62588;SDS011;58504;48.770;9.148;2023-06-26T10:56:59;7.82;;;5.35;;
62588;SDS011;58504;48.770;9.148;2023-06-26T10:59:27;4.57;;;4.18;;
62588;SDS011;58504;48.770;9.148;2023-06-26T11:01:56;5.63;;;4.25;;
62588;SDS011;58504;48.770;9.148;2023-06-26T11:04:38;8.57;;;5.22;;
62588;SDS011;58504;48.770;9.148;2023-06-26T11:07:16;5.60;;;4.05;;
62588;SDS011;58504;48.770;9.148;2023-06-26T11:09:54;5.22;;;3.92;;
62588;SDS011;58504;48.770;9.148;2023-06-26T11:12:35;4.15;;;3.70;;
62588;SDS011;58504;48.770;9.148;2023-06-26T11:15:03;4.60;;;4.20;;
62588;SDS011;58504;48.770;9.148;2023-06-26T11:17:34;5.82;;;3.83;;
62588;SDS011;58504;48.770;9.148;2023-06-26T11:20:02;6.78;;;4.95;;
62588;SDS011;58504;48.770;9.148;2023-06-26T11:22:31;4.80;;;3.97;;
62588;SDS011;58504;48.770;9.148;2023-06-26T11:25:00;4.43;;;4.03;;
62588;SDS011;58504;48.770;9.148;2023-06-26T11:27:31;7.80;;;5.25;;
62588;SDS011;58504;48.770;9.148;2023-06-26T11:29:59;5.25;;;4.13;;
62588;SDS011;58504;48.770;9.148;2023-06-26T11:32:26;6.68;;;4.38;;
62588;SDS011;58504;48.770;9.148;2023-06-26T11:34:53;4.82;;;4.15;;
62588;SDS011;58504;48.770;9.148;2023-06-26T11:37:22;7.07;;;4.88;;
62588;SDS011;58504;48.770;9.148;2023-06-26T11:39:49;4.50;;;3.72;;
62588;SDS011;58504;48.770;9.148;2023-06-26T11:42:16;5.32;;;4.28;;
62588;SDS011;58504;48.770;9.148;2023-06-26T11:44:43;4.43;;;3.80;;
62588;SDS011;58504;48.770;9.148;2023-06-26T11:47:13;5.15;;;4.30;;
62588;SDS011;58504;48.770;9.148;2023-06-26T11:49:44;5.18;;;4.00;;
62588;SDS011;58504;48.770;9.148;2023-06-26T11:52:12;6.35;;;4.63;;
62588;SDS011;58504;48.770;9.148;2023-06-26T11:54:40;3.63;;;3.35;;
62588;SDS011;58504;48.770;9.148;2023-06-26T11:57:08;4.63;;;4.00;;
62588;SDS011;58504;48.770;9.148;2023-06-26T11:59:39;4.33;;;3.90;;
62588;SDS011;58504;48.770;9.148;2023-06-26T12:02:06;4.05;;;3.63;;
62588;SDS011;58504;48.770;9.148;2023-06-26T12:04:34;4.45;;;4.05;;
62588;SDS011;58504;48.770;9.148;2023-06-26T12:07:04;3.97;;;3.60;;
62588;SDS011;58504;48.770;9.148;2023-06-26T12:09:34;5.00;;;3.95;;
62588;SDS011;58504;48.770;9.148;2023-06-26T12:12:05;4.40;;;4.00;;
62588;SDS011;58504;48.770;9.148;2023-06-26T12:14:33;4.63;;;3.70;;
62588;SDS011;58504;48.770;9.148;2023-06-26T12:17:04;5.20;;;4.28;;
62588;SDS011;58504;48.770;9.148;2023-06-26T12:19:33;4.35;;;3.90;;
62588;SDS011;58504;48.770;9.148;2023-06-26T12:22:05;5.72;;;4.50;;
62588;SDS011;58504;48.770;9.148;2023-06-26T12:24:33;4.55;;;3.45;;
62588;SDS011;58504;48.770;9.148;2023-06-26T12:27:02;4.43;;;3.95;;
62588;SDS011;58504;48.770;9.148;2023-06-26T12:29:34;5.63;;;4.45;;
62588;SDS011;58504;48.770;9.148;2023-06-26T12:32:02;5.00;;;3.88;;
62588;SDS011;58504;48.770;9.148;2023-06-26T12:34:30;3.92;;;3.63;;
62588;SDS011;58504;48.770;9.148;2023-06-26T12:37:00;3.65;;;3.33;;
62588;SDS011;58504;48.770;9.148;2023-06-26T12:39:29;4.38;;;3.88;;
62588;SDS011;58504;48.770;9.148;2023-06-26T12:41:57;3.88;;;3.53;;
62588;SDS011;58504;48.770;9.148;2023-06-26T12:44:28;3.88;;;3.47;;
62588;SDS011;58504;48.770;9.148;2023-06-26T12:46:56;5.28;;;4.18;;
62588;SDS011;58504;48.770;9.148;2023-06-26T12:49:30;3.70;;;3.47;;
62588;SDS011;58504;48.770;9.148;2023-06-26T12:51:58;3.60;;;3.25;;
62588;SDS011;58504;48.770;9.148;2023-06-26T12:54:25;4.75;;;4.10;;
62588;SDS011;58504;48.770;9.148;2023-06-26T12:56:52;4.18;;;3.55;;
62588;SDS011;58504;48.770;9.148;2023-06-26T12:59:19;4.20;;;3.80;;
62588;SDS011;58504;48.770;9.148;2023-06-26T13:01:47;4.57;;;3.80;;
62588;SDS011;58504;48.770;9.148;2023-06-26T13:04:14;4.38;;;3.53;;
62588;SDS011;58504;48.770;9.148;2023-06-26T13:06:41;4.07;;;3.72;;
62588;SDS011;58504;48.770;9.148;2023-06-26T13:09:08;3.97;;;3.67;;
62588;SDS011;58504;48.770;9.148;2023-06-26T13:11:36;5.03;;;3.30;;
62588;SDS011;58504;48.770;9.148;2023-06-26T13:14:03;4.20;;;3.80;;
62588;SDS011;58504;48.770;9.148;2023-06-26T13:16:30;4.20;;;3.80;;
62588;SDS011;58504;48.770;9.148;2023-06-26T13:18:59;3.75;;;3.20;;
62588;SDS011;58504;48.770;9.148;2023-06-26T13:21:26;4.13;;;3.67;;
62588;SDS011;58504;48.770;9.148;2023-06-26T13:23:53;3.67;;;3.28;;
62588;SDS011;58504;48.770;9.148;2023-06-26T13:26:20;3.50;;;3.10;;
62588;SDS011;58504;48.770;9.148;2023-06-26T13:28:48;4.53;;;3.70;;
62588;SDS011;58504;48.770;9.148;2023-06-26T13:31:15;4.20;;;3.80;;
62588;SDS011;58504;48.770;9.148;2023-06-26T13:33:42;4.15;;;3.75;;
62588;SDS011;58504;48.770;9.148;2023-06-26T13:36:11;4.47;;;4.07;;
62588;SDS011;58504;48.770;9.148;2023-06-26T13:38:38;4.20;;;3.78;;
62588;SDS011;58504;48.770;9.148;2023-06-26T13:41:05;6.20;;;3.50;;
62588;SDS011;58504;48.770;9.148;2023-06-26T13:43:31;4.55;;;4.15;;
62588;SDS011;58504;48.770;9.148;2023-06-26T13:46:00;3.85;;;3.53;;
62588;SDS011;58504;48.770;9.148;2023-06-26T13:48:27;4.68;;;4.20;;
62588;SDS011;58504;48.770;9.148;2023-06-26T13:50:55;4.32;;;3.92;;
62588;SDS011;58504;48.770;9.148;2023-06-26T13:53:23;4.18;;;3.78;;
62588;SDS011;58504;48.770;9.148;2023-06-26T13:55:50;4.00;;;3.70;;
62588;SDS011;58504;48.770;9.148;2023-06-26T13:58:17;3.55;;;3.25;;
62588;SDS011;58504;48.770;9.148;2023-06-26T14:00:47;3.60;;;3.30;;
62588;SDS011;58504;48.770;9.148;2023-06-26T14:03:14;3.53;;;3.22;;
62588;SDS011;58504;48.770;9.148;2023-06-26T14:05:41;3.92;;;3.63;;
62588;SDS011;58504;48.770;9.148;2023-06-26T14:08:08;3.97;;;3.67;;
62588;SDS011;58504;48.770;9.148;2023-06-26T14:10:37;4.13;;;3.78;;
62588;SDS011;58504;48.770;9.148;2023-06-26T14:13:04;3.88;;;3.58;;
62588;SDS011;58504;48.770;9.148;2023-06-26T14:15:30;3.95;;;3.63;;
62588;SDS011;58504;48.770;9.148;2023-06-26T14:17:58;3.60;;;3.30;;
62588;SDS011;58504;48.770;9.148;2023-06-26T14:20:27;3.38;;;3.13;;
62588;SDS011;58504;48.770;9.148;2023-06-26T14:22:54;3.55;;;3.25;;
62588;SDS011;58504;48.770;9.148;2023-06-26T14:25:21;3.65;;;3.42;;
62588;SDS011;58504;48.770;9.148;2023-06-26T14:27:49;3.50;;;3.20;;
62588;SDS011;58504;48.770;9.148;2023-06-26T14:30:16;3.45;;;3.15;;
62588;SDS011;58504;48.770;9.148;2023-06-26T14:32:43;4.47;;;4.07;;
62588;SDS011;58504;48.770;9.148;2023-06-26T14:35:09;4.07;;;3.75;;
62588;SDS011;58504;48.770;9.148;2023-06-26T14:37:36;3.60;;;3.30;;
62588;SDS011;58504;48.770;9.148;2023-06-26T14:40:05;4.03;;;3.63;;
62588;SDS011;58504;48.770;9.148;2023-06-26T14:42:33;3.60;;;3.30;;
62588;SDS011;58504;48.770;9.148;2023-06-26T14:45:01;3.70;;;3.47;;
62588;SDS011;58504;48.770;9.148;2023-06-26T14:47:28;3.92;;;3.63;;
62588;SDS011;58504;48.770;9.148;2023-06-26T14:49:55;4.10;;;3.70;;
62588;SDS011;58504;48.770;9.148;2023-06-26T14:52:21;4.65;;;3.58;;
62588;SDS011;58504;48.770;9.148;2023-06-26T14:54:48;3.45;;;3.25;;